Startpagina
METAR-TAF:

METAR-TAF

Vliegvelden :

Sydney, Australië

Kingsford Smith International Airport

breedte: 33-57S, lengte: 151-11E, hoogte: 6 m

Actueel weer

Dit bericht is 37 minuten geleden gemaakt, om 01:30 UTC
Wind 10 kt uit het zuiden
Temperatuur 22°C
Vochtigheid 69%
Druk 1022 hPa
Zicht 10 km of meer
Weinig wolken op 2500 ft
Verspreide wolken op 3500 ft
Gebroken wolken op 6800 ft

METAR: YSSY 210130Z 17010KT 9999 FEW025 SCT035 BKN068 22/16 Q1022 NOSIG

Tijdstip: 12:07 (02:07 UTC)

Verwachting

Dit bericht is 3 uur en het 3 minuten geleden gemaakt, om 23:04 UTC
Verwachting geldig van 21 om 00 UTC tot 22 om 06 UTC
Wind 12 kt uit het zuidzuidoosten
Zicht 10 km of meer
Verspreide wolken op 2500 ft
Van 22 om 0000 UTC
Wind 12 kt uit het zuidoosten
Zicht 10 km of meer
Verspreide wolken op 3500 ft

TAF: YSSY 202304Z 2100/2206 15012KT 9999 SCT025 FM220000 14012KT 9999 SCT035

Waarnemingen en weersverwachtingen van meer dan 4000 vliegvelden (METAR en TAF).

De beschikbare stations zijn de gele en rode punten op de kaart.

Ga met uw muis naar het station om de naam te zien.

Klik dan om waarnemingen en weersverwachtingen te zien.

kaart wijzigen: klik op de groene knoppen met een zwart kruis om in te zoomen, op de groene knop met een streepje om uit te zoomen of op de groene pijlen voor aangrenzende kaarten.


METAR-TAF: